NCAR-RAP Real-Time Weather Data

Output produced by METARs form (31 May 2020  13:33 UTC)
found at http://weather.rap.ucar.edu/surface/
 
KAPN 311254Z AUTO 25005KT 10SM CLR 09/01 A3032 RMK AO2 SLP272 T00940006
KAPN 311154Z AUTO VRB03KT 10SM CLR 07/02 A3033 RMK AO2 SLP275 70002 T00670017 10067 20022 51021
KAPN 311054Z AUTO 30004KT 10SM CLR 04/01 A3031 RMK AO2 SLP270 T00390006
KAPN 310954Z AUTO 30003KT 10SM CLR 03/01 A3028 RMK AO2 SLP259 T00280006
KAPN 310854Z AUTO 00000KT 10SM CLR 03/00 A3026 RMK AO2 SLP253 T00280000 53007
KAPN 310754Z AUTO 31007KT 10SM CLR 03/00 A3026 RMK AO2 SLP250 T00330000
KAPN 310654Z AUTO 30006KT 10SM CLR 04/00 A3025 RMK AO2 SLP247 T00390000
KAPN 310554Z AUTO 28004KT 10SM CLR 04/00 A3024 RMK AO2 SLP246 T00390000 10111 20039 51006
KAPN 310454Z AUTO 29004KT 10SM CLR 05/00 A3024 RMK AO2 SLP243 T00500000 401610050
KAPN 310354Z AUTO 30004KT 10SM CLR 06/01 A3023 RMK AO2 SLP241 T00560006
KAPN 310254Z AUTO 32006KT 10SM CLR 07/00 A3023 RMK AO2 SLP239 T00670000 53018
KAPN 310154Z AUTO 33011KT 10SM CLR 08/00 A3021 RMK AO2 SLP233 T00780000
KAPN 310054Z AUTO 33012G25KT 10SM CLR 09/00 A3019 RMK AO2 PK WND 33027/0024 SLP226 T00940000
KAPN 302354Z AUTO 35016G25KT 10SM BKN060 11/02 A3017 RMK AO2 SLP221 60002 T01110022 10161 20106 53017
KAPN 302254Z AUTO 32012G24KT 10SM FEW047 SCT070 12/04 A3014 RMK AO2 SLP210 T01220039
KAPN 302154Z AUTO VRB06G17KT 10SM BKN046 OVC055 13/06 A3013 RMK AO2 PK WND 33026/2123 RAB01E10B31E54 SLP204 P0000 T01280061
KAPN 302054Z AUTO 34016G21KT 10SM FEW035 SCT045 BKN060 13/08 A3012 RMK AO2 RAB1957E47 SLP202 P0002 60002 T01330083 53012
KAPN 301954Z AUTO 27008KT 10SM FEW045 BKN060 OVC070 14/07 A3010 RMK AO2 RAE03B31E52 SLP195 P0000 T01390067
KAPN 301854Z AUTO 32009G25KT 10SM -RA BKN050 OVC060 13/06 A3010 RMK AO2 PK WND 33026/1801 RAB48 SLP194 P0000 T01330061
KAPN 301754Z AUTO 32013G23KT 10SM BKN045 OVC050 14/04 A3008 RMK AO2 PK WND 34026/1704 SLP189 T01390039 10161 20111 53012
KAPN 301654Z AUTO 35013G21KT 10SM FEW034 SCT047 BKN095 15/06 A3007 RMK AO2 SLP183 T01500056
KAPN 301554Z AUTO 35013G22KT 10SM SCT035 16/08 A3005 RMK AO2 SLP178 T01560078
KAPN 301454Z AUTO 32010G22KT 10SM FEW032 15/07 A3005 RMK AO2 SLP177 T01500067 51011